Weather observations for the past three days for
Flemingsburg Fleming-Mason Airport
Imperial (Metric)
Date Time (edt) Wind (mph) Vis. (mi.) Weather Sky Cond. Temperature (ºF) Relative Humidity Wind Chill (°F) Heat Index (°F) Pressure Precipitation (in)
Air Dwpt 6 hour altimeter (in) sea level (mb) 1 hr 3 hr 6 hr
Max. Min.
03 03:55 SW 6 10.00 Fair CLR 75.7 70.3 83% 76 30.08 0.0
03 03:35 SW 6 10.00 Fair CLR 76.1 70.2 82% 77 30.07 0.0
03 03:15 SW 6 10.00 Fair CLR 76.3 70 81% 77 30.07 0.0
03 02:55 SW 6 10.00 Fair CLR 76.1 70.2 82% 77 30.07 0.0
03 02:35 SW 5 10.00 Fair CLR 75.9 70.2 82% 77 30.06 0.0
03 02:15 SW 6 10.00 Fair CLR 76.3 70.3 82% 77 30.07 0.0
03 01:55 S 6 10.00 Fair CLR 76.1 70.5 86.4 76.1 83% 77 30.07 0.0
03 01:35 S 7 10.00 Fair CLR 77 70.2 80% 79 30.07 0.0
03 01:15 SW 7 10.00 Fair CLR 77.7 69.8 77% 80 30.06 0.0
03 00:55 S 7 10.00 Fair CLR 77.5 69.8 77% 79 30.06 0.0
03 00:35 S 6 10.00 Fair CLR 77.9 69.3 75% 80 30.06 0.0
03 00:15 S 5 10.00 Fair CLR 77.9 68.9 74% 80 30.06 0.0
02 23:55 S 3 10.00 Fair CLR 78.1 68.5 73% 80 30.07 0.0
02 23:35 SW 3 10.00 Fair CLR 79.2 68.4 70% 82 30.07 0.0
02 23:15 SW 3 10.00 Fair CLR 80.2 68.5 68% 83 30.07 0.0
02 22:55 SW 3 10.00 Fair CLR 81.7 68.5 65% 85 30.07 0.0
02 22:35 W 3 10.00 Fair CLR 82.4 68.2 62% 85 30.07 0.0
02 22:15 W 3 10.00 Fair CLR 81.9 68.7 65% 85 30.07 0.0
02 21:55 W 5 10.00 Fair CLR 82.4 68.9 64% 86 30.07 0.0
02 21:35 W 3 10.00 Fair CLR 82.9 68.9 63% 86 30.07 0.0
02 21:15 W 5 10.00 Fair CLR 83.3 68.9 62% 87 30.06 0.0
02 20:55 W 5 10.00 Fair CLR 83.5 68.9 62% 87 30.06 0.0
02 20:35 W 5 10.00 Fair CLR 84.9 68.7 58% 89 30.05 0.0
02 20:15 W 5 10.00 Fair CLR 85.6 68.9 57% 90 30.05 0.0
02 19:55 W 5 10.00 Fair CLR 86.5 69.4 96.6 86.5 57% 91 30.05 0.0
02 19:35 W 5 10.00 Fair CLR 88.2 69.8 55% 93 30.06 0.0
02 19:15 W 5 10.00 Fair CLR 90.3 69.4 50% 95 30.05 0.0
02 18:55 W 6 10.00 Fair CLR 91.8 69.6 48% 97 30.05 0.0
02 18:35 W 8 10.00 Fair CLR 92.5 68.9 46% 97 30.06 0.0
02 18:15 W 8 10.00 Fair CLR 93.9 68.5 44% 99 30.06 0.0
02 17:55 W 12 10.00 Fair CLR 94.8 68.4 42% 100 30.06 0.0
02 17:35 W 9 10.00 Fair CLR 95 68.5 42% 100 30.06 0.0
02 17:15 W 8 10.00 Partly Cloudy SCT055 95.2 68.9 42% 101 30.06 0.0
02 16:55 W 7 10.00 Partly Cloudy SCT055 96.1 68.9 41% 102 30.06 0.0
02 16:35 W 9 10.00 Partly Cloudy SCT055 95.9 69.3 42% 102 30.07 0.0
02 16:15 W 6 10.00 Fair CLR 94.5 70.2 45% 101 30.07 0.0
02 15:55 W 7 10.00 Partly Cloudy SCT055 95.9 70.2 43% 103 30.08 0.0
02 15:35 W 6 10.00 Partly Cloudy SCT055 SCT065 96.3 69.8 42% 103 30.09 0.0
02 15:15 W 8 10.00 Fair CLR 94.8 69.3 43% 101 30.09 0.0
02 14:55 W 10 10.00 Fair CLR 95.4 69.8 44% 102 30.1 0.0
02 14:35 W 10 10.00 Partly Cloudy SCT055 94.8 68.9 43% 100 30.1 0.0
02 14:15 W 10 10.00 Fair CLR 95.4 69.3 43% 101 30.1 0.0
02 13:55 W 9 10.00 Partly Cloudy SCT080 95 69.3 95.5 72.7 43% 101 30.1 0.0
02 13:35 NW 6 10.00 Partly Cloudy SCT049 SCT060 SCT075 93 68.4 45% 98 30.11 0.0
02 13:15 W 9 10.00 Partly Cloudy SCT049 SCT060 SCT075 94.5 70.2 45% 101 30.12 0.0
02 12:55 NW 3 10.00 Partly Cloudy SCT047 93.2 70 47% 99 30.13 0.0
02 12:35 W 3 10.00 Partly Cloudy SCT047 92.8 70 47% 99 30.13 0.0
02 12:15 Calm 10.00 Fair CLR 91.8 70.2 49% 98 30.15 0.0
02 11:55 NW 3 10.00 Fair CLR 89.8 70 52% 95 30.14 0.0
02 11:35 Calm 10.00 Fair CLR 89.8 70.7 53% 96 30.15 0.0
02 11:15 W 5 10.00 Fair CLR 88.5 71.2 57% 95 30.15 0.0
02 10:55 W 5 10.00 Fair CLR 87.1 70.9 59% 93 30.15 0.0
02 10:35 W 5 10.00 Fair CLR 86.7 71.1 60% 92 30.15 0.0
02 10:15 W 5 10.00 Fair CLR 85.3 70.9 62% 90 30.15 0.0
02 09:55 W 7 10.00 Fair CLR 84.4 71.1 64% 89 30.15 0.0
02 09:35 W 6 10.00 Fair CLR 82.4 71.1 69% 87 30.14 0.0
02 09:15 W 3 10.00 Fair CLR 79.9 70.9 74% 83 30.14 0.0
02 08:55 W 3 10.00 Fair CLR 77.5 70.7 80% 79 30.13 0.0
02 08:35 SW 6 10.00 Fair CLR 75.2 69.8 83% 75 30.13 0.0
02 08:15 SW 6 10.00 Fair CLR 73.9 69.6 86% 30.13 0.0
02 07:55 SW 5 10.00 Fair CLR 72.5 69.3 75.2 69.8 90% 30.13 0.0
02 07:35 S 5 10.00 Fair CLR 71.4 68.9 92% 30.12 0.0
02 07:15 S 6 10.00 Fair CLR 69.8 68.4 95% 30.12 0.0
02 06:55 S 3 10.00 Fair CLR 70.9 68.9 94% 30.11 0.0
02 06:35 SW 3 10.00 Fair CLR 70.9 69.3 95% 30.11 0.0
02 06:15 SW 3 10.00 Fair CLR 71.1 69.1 94% 30.11 0.0
02 05:55 SW 3 10.00 Fair CLR 71.1 69.1 94% 30.11 0.0
02 05:35 Calm 10.00 Fair CLR 71.2 69.1 93% 30.1 0.0
02 05:15 Calm 10.00 Fair CLR 72 69.3 91% 30.1 0.0
02 04:55 S 6 10.00 Fair CLR 72.5 69.4 90% 30.1 0.0
02 04:35 S 6 10.00 Fair CLR 72.5 69.3 90% 30.1 0.0
02 04:15 SW 6 10.00 Fair CLR 72.9 69.1 88% 30.1 0.0
02 03:55 SW 6 10.00 Fair CLR 73 69.1 87% 30.09 0.0
02 03:35 SW 6 10.00 Fair CLR 73.4 69.1 86% 30.09 0.0
02 03:15 S 7 10.00 Fair CLR 73.6 69.1 86% 30.08 0.0
02 02:55 S 7 10.00 Fair CLR 74.3 69.3 84% 30.08 0.0
02 02:35 SW 6 10.00 Fair CLR 74.3 69.3 84% 30.08 0.0
02 02:15 S 7 10.00 Fair CLR 74.7 69.4 84% 30.09 0.0
02 01:55 SW 7 10.00 Fair CLR 75.2 69.3 86 75.2 82% 76 30.09 0.0
02 01:35 SW 6 10.00 Fair CLR 75.6 69.1 80% 76 30.09 0.0
02 01:15 SW 6 10.00 Fair CLR 76.1 69.3 79% 77 30.09 0.0
02 00:55 SW 6 10.00 Fair CLR 76.1 69.3 79% 77 30.09 0.0
02 00:35 SW 5 10.00 Fair CLR 76.5 69.1 78% 78 30.09 0.0
02 00:15 SW 5 10.00 Fair CLR 77 68.9 76% 79 30.09 0.0
01 23:55 SW 5 10.00 Fair CLR 77.5 68.9 75% 79 30.09 0.0
01 23:35 SW 5 10.00 Fair CLR 77.2 68.5 75% 79 30.09 0.0
01 23:15 SW 3 10.00 Fair CLR 78.3 68.9 73% 81 30.09 0.0
01 22:55 Calm 10.00 Fair CLR 79.3 68.9 71% 82 30.1 0.0
01 22:35 Calm 10.00 Fair CLR 80.1 68.7 68% 83 30.09 0.0
01 22:15 W 3 10.00 Fair CLR 81 68.7 66% 84 30.09 0.0
01 21:55 W 3 10.00 Fair CLR 81.1 68.7 66% 84 30.09 0.0
01 21:35 W 5 10.00 Fair CLR 81.7 68.4 64% 85 30.09 0.0
01 21:15 SW 3 10.00 Fair CLR 82.6 68.5 63% 86 30.08 0.0
01 20:55 SW 3 10.00 Fair CLR 82.9 68.4 62% 86 30.08 0.0
01 20:35 Calm 10.00 Fair CLR 83.5 67.8 59% 87 30.08 0.0
01 20:15 W 3 10.00 Fair CLR 85.1 67.6 56% 88 30.08 0.0
01 19:55 W 3 10.00 Fair CLR 86 68 94.6 86 55% 89 30.08 0.0
01 19:35 W 3 10.00 Fair CLR 86.9 68.2 54% 91 30.08 0.0
01 19:15 W 5 10.00 Fair CLR 89.1 68 50% 93 30.08 0.0
01 18:55 W 7 10.00 Fair CLR 90.7 68.9 49% 95 30.08 0.0
01 18:35 W 6 10.00 Fair CLR 91.6 69.1 48% 97 30.08 0.0
01 18:15 W 6 10.00 Partly Cloudy SCT055 92.7 66.9 43% 96 30.08 0.0
01 17:55 W 5 10.00 Partly Cloudy SCT055 93.4 67.3 42% 97 30.08 0.0
01 17:35 W 6 10.00 Partly Cloudy SCT055 91 67.8 47% 95 30.08 0.0
01 17:15 W 5 10.00 Fair CLR 93.2 68.2 44% 98 30.08 0.0
01 16:55 W 7 10.00 Fair CLR 94.3 68 42% 99 30.08 0.0
01 16:35 W 6 10.00 Fair CLR 93.4 67.3 42% 97 30.09 0.0
01 16:15 W 9 10.00 Fair CLR 92.3 65.7 42% 95 30.09 0.0
01 15:55 W 6 10.00 Fair CLR 93.6 66.7 41% 97 30.1 0.0
01 15:35 W 7 10.00 Fair CLR 93.9 67.5 42% 98 30.1 0.0
01 15:15 NW 6 G 9 10.00 Fair CLR 93 65.3 40% 95 30.11 0.0
01 14:55 NW 7 10.00 Fair CLR 92.7 65.5 41% 95 30.11 0.0
01 14:35 W 5 10.00 Fair CLR 93 67.6 43% 97 30.12 0.0
01 14:15 W 9 10.00 Fair CLR 93.4 67.3 42% 97 30.12 0.0
01 13:55 W 12 10.00 Fair CLR 92.5 67.8 92.5 72.5 44% 97 30.13 0.0
01 13:35 W 9 10.00 Fair CLR 91.8 67.6 45% 96 30.13 0.0
01 13:15 W 8 G 17 10.00 Fair CLR 91.9 68.5 46% 97 30.14 0.0
01 12:55 W 13 10.00 Fair CLR 91 69.3 49% 96 30.14 0.0
01 12:35 W 12 10.00 Fair CLR 90.7 69.6 50% 96 30.15 0.0
01 12:15 W 13 G 18 10.00 Fair CLR 88.9 68.7 51% 93 30.15 0.0
01 11:55 W 13 G 16 10.00 Fair CLR 89.2 69.6 52% 94 30.14 0.0
01 11:35 W 10 G 16 10.00 Fair CLR 88.2 69.1 53% 93 30.15 0.0
01 11:15 W 9 10.00 Fair CLR 87.6 70.2 56% 93 30.15 0.0
01 10:55 NW 9 10.00 Fair CLR 87.1 70.2 57% 92 30.15 0.0
01 10:35 NW 6 10.00 Fair CLR 85.1 70.2 61% 90 30.15 0.0
01 10:15 W 5 10.00 Fair CLR 83.8 70.3 64% 88 30.15 0.0
01 09:55 W 6 10.00 Fair CLR 82.8 71.1 68% 87 30.15 0.0
01 09:35 W 7 10.00 Fair CLR 81.1 70.7 71% 85 30.15 0.0
01 09:15 W 7 10.00 Fair CLR 80.1 70.5 73% 83 30.15 0.0
01 08:55 W 6 10.00 Fair CLR 78.3 70.2 76% 81 30.15 0.0
01 08:35 W 5 10.00 Fair CLR 75.9 69.8 81% 77 30.16 0.0
01 08:15 SW 5 10.00 Fair CLR 74.1 69.4 85% 30.16 0.0
01 07:55 W 5 10.00 Fair CLR 72.5 69.3 75 70.7 90% 30.15 0.0
01 07:35 SW 6 10.00 Fair CLR 71.6 68.9 91% 30.14 0.0
01 07:15 SW 5 10.00 Fair CLR 70.9 68.9 94% 30.13 0.0
01 06:55 SW 3 10.00 Fair CLR 70.7 68.7 93% 30.13 0.0
01 06:35 SW 3 10.00 Fair CLR 70.9 68.9 94% 30.12 0.0
01 06:15 SW 3 10.00 Fair CLR 71.1 68.9 93% 30.12 0.0
01 05:55 SW 3 10.00 Fair CLR 71.4 69.1 92% 30.11 0.0
01 05:35 SW 3 10.00 Fair CLR 71.6 69.3 92% 30.11 0.0
01 05:15 S 3 10.00 Fair CLR 72 69.3 91% 30.11 0.0
01 04:55 Calm 10.00 Fair CLR 72.1 69.1 90% 30.1 0.0
01 04:35 Calm 10.00 Fair CLR 72.5 69.1 89% 30.1 0.0
01 04:15 Calm 10.00 Fair CLR 72.7 68.9 88% 30.09 0.0
01 03:55 SW 3 10.00 Fair CLR 73.4 69.1 86% 30.09 0.0
01 03:35 SW 7 10.00 Fair CLR 73.4 69.1 86% 30.08 0.0
01 03:15 SW 7 10.00 Fair CLR 73.9 69.4 86% 30.08 0.0
01 02:55 SW 6 10.00 Fair CLR 74.1 69.1 84% 30.08 0.0
01 02:35 SW 7 10.00 Fair CLR 74.5 69.1 83% 30.09 0.0
01 02:15 SW 7 10.00 Fair CLR 74.7 68.9 82% 30.09 0.0
01 01:55 SW 6 10.00 Fair CLR 74.8 68.5 84.2 74.8 81% 30.1 0.0
01 01:35 SW 6 10.00 Fair CLR 75.2 68.2 79% 76 30.11 0.0
01 01:15 SW 5 10.00 Fair CLR 75.2 68 78% 76 30.11 0.0
01 00:55 SW 6 10.00 Fair CLR 75.9 68 77% 77 30.11 0.0
01 00:35 S 7 10.00 Fair CLR 76.3 68 76% 78 30.11 0.0
01 00:15 S 7 10.00 Fair CLR 77 68 74% 79 30.12 0.0
31 23:55 S 7 10.00 Fair CLR 78.3 67.8 70% 80 30.12 0.0
31 23:35 S 5 10.00 Fair CLR 77.2 68 73% 79 30.12 0.0
31 23:15 S 3 10.00 Fair CLR 76.8 68.4 75% 78 30.12 0.0
31 22:55 S 3 10.00 Fair CLR 76.3 68.9 78% 78 30.12 0.0
31 22:35 SE 3 10.00 Fair CLR 76.8 68.7 76% 78 30.12 0.0
31 22:15 Calm 10.00 Fair CLR 78.8 68.5 71% 81 30.12 0.0
31 21:55 Calm 10.00 Fair CLR 78.8 68.5 71% 81 30.12 0.0
31 21:35 Calm 10.00 Fair CLR 81 68.4 66% 84 30.11 0.0
31 21:15 SW 3 10.00 Fair CLR 80.6 68.2 66% 83 30.1 0.0
31 20:55 SW 3 10.00 Fair CLR 81.9 68.5 64% 85 30.09 0.0
31 20:35 SW 3 10.00 Fair CLR 82.6 68.5 63% 86 30.09 0.0
31 20:15 SW 5 10.00 Fair CLR 83.3 68.5 61% 87 30.08 0.0
31 19:35 W 5 10.00 Fair CLR 85.6 69.1 58% 90 30.08 0.0
31 19:15 W 7 10.00 Fair CLR 87.3 68.5 54% 91 30.08 0.0
31 18:55 W 7 10.00 Fair CLR 89.2 68.5 51% 93 30.08 0.0
31 18:35 W 8 10.00 Fair CLR 90 68.4 49% 94 30.09 0.0
31 18:15 W 8 10.00 Fair CLR 91.2 68.2 47% 95 30.1 0.0
31 17:55 NW 9 10.00 Fair CLR 91.8 67.5 45% 96 30.1 0.0
31 17:35 NW 10 10.00 Fair CLR 92.1 67.3 44% 96 30.1 0.0
31 17:15 W 8 10.00 Fair CLR 92.7 67.6 44% 97 30.1 0.0
31 16:55 W 10 10.00 Partly Cloudy SCT070 92.3 67.6 44% 96 30.11 0.0
31 16:35 W 7 G 17 10.00 Partly Cloudy SCT049 92.3 68.9 46% 97 30.11 0.0
31 16:15 W 10 10.00 Partly Cloudy SCT049 SCT060 92.7 69.3 46% 98 30.11 0.0
31 15:55 W 9 10.00 Fair CLR 92.7 70 48% 99 30.12 0.0
31 15:35 W 12 G 16 10.00 Partly Cloudy SCT044 91 68.9 48% 96 30.13 0.0
31 15:15 W 12 10.00 Partly Cloudy SCT044 91.4 70.5 51% 98 30.14 0.0
31 14:55 NW 13 10.00 Partly Cloudy SCT044 SCT060 90 69.1 50% 95 30.15 0.0
31 14:35 W 12 10.00 Partly Cloudy SCT048 SCT055 SCT085 91.6 70.5 50% 98 30.15 0.0
31 14:15 W 12 10.00 Mostly Cloudy SCT046 SCT050 BKN065 91.8 69.8 49% 97 30.15 0.0
31 13:55 W 12 G 17 10.00 Mostly Cloudy SCT044 SCT050 BKN060 92.3 70.5 92.3 72.3 49% 99 30.15 0.0
31 13:35 W 10 10.00 Mostly Cloudy SCT044 BKN060 BKN070 92.3 70.9 50% 99 30.16 0.0
31 13:15 W 15 G 21 10.00 Mostly Cloudy SCT044 BKN060 BKN070 91.6 70.5 50% 98 30.16 0.0
31 12:55 W 13 G 18 10.00 Partly Cloudy SCT042 89.8 70.5 53% 96 30.17 0.0
31 12:15 W 9 10.00 Fair CLR 88.9 71.6 57% 95 30.17 0.0
31 11:55 W 12 10.00 Fair CLR 87.8 70.3 56% 93 30.17 0.0
31 11:35 W 7 10.00 Fair CLR 87.6 70.2 56% 93 30.17 0.0
31 11:15 W 7 10.00 Fair CLR 85.5 70 60% 90 30.17 0.0
31 10:55 W 6 10.00 Fair CLR 84.2 70.5 64% 89 30.17 0.0
31 10:35 W 7 10.00 Fair CLR 82 71.1 69% 86 30.17 0.0
31 10:15 W 5 10.00 Fair CLR 78.8 69.8 74% 81 30.17 0.0
31 09:55 W 7 10.00 Fair CLR 77.7 69.8 77% 80 30.16 0.0
31 09:35 W 7 10.00 Fair CLR 76.6 69.3 78% 78 30.16 0.0
31 09:15 W 6 10.00 Fair CLR 75.9 69.1 79% 77 30.16 0.0
31 08:55 W 6 10.00 Fair CLR 75.2 68.9 81% 76 30.16 0.0
31 08:35 W 6 10.00 Fair CLR 74.1 68.5 83% 30.15 0.0
31 08:15 SW 5 10.00 Fair CLR 73.4 68.4 84% 30.15 0.0
31 07:55 SW 5 10.00 Fair CLR 72.1 68 73.4 70.9 87% 30.15 0.0
31 07:35 SW 3 10.00 Fair CLR 72 68 87% 30.15 0.0
31 07:15 SW 5 10.00 Fair CLR 72.1 68 87% 30.13 0.0
31 06:55 SW 7 10.00 Fair CLR 71.8 68 88% 30.13 0.0
31 06:35 SW 5 10.00 Fair CLR 71.6 68 88% 30.12 0.0
31 06:15 S 3 10.00 Fair CLR 71.6 68 88% 30.12 0.0
31 05:55 S 3 10.00 Fair CLR 71.4 67.8 88% 30.12 0.0
31 05:35 S 5 10.00 Fair CLR 71.1 67.8 90% 30.11 0.0
31 05:15 S 3 10.00 Fair CLR 71.8 68 88% 30.12 0.0
31 04:55 SW 3 10.00 Fair CLR 71.6 68 88% 30.12 0.0
31 04:35 S 5 10.00 Fair CLR 71.6 68 88% 30.11 0.0
31 04:15 S 5 10.00 Fair CLR 71.8 67.8 87% 30.11 0.0
Date Time (edt) Wind (mph) Vis. (mi.) Weather Sky Cond. Air Dwpt Max. Min. Relative Humidity Wind Chill (°F) Heat Index (°F) altimeter (in) sea level (mb) 1 hr 3 hr 6 hr
6 hour
Temperature (ºF) Pressure Precipitation (in)